sensor_id;sensor_type;location;lat;lon;timestamp;temperature;humidity
19536;HTU21D;9913;51.168;4.124;2022-11-06T00:00:36;10.06;78.51
19536;HTU21D;9913;51.168;4.124;2022-11-06T00:03:05;10.01;78.71
19536;HTU21D;9913;51.168;4.124;2022-11-06T00:05:33;10.07;78.58
19536;HTU21D;9913;51.168;4.124;2022-11-06T00:08:31;10.06;78.61
19536;HTU21D;9913;51.168;4.124;2022-11-06T00:11:00;10.07;78.59
19536;HTU21D;9913;51.168;4.124;2022-11-06T00:13:30;10.12;78.56
19536;HTU21D;9913;51.168;4.124;2022-11-06T00:16:01;10.14;78.50
19536;HTU21D;9913;51.168;4.124;2022-11-06T00:18:30;10.14;78.48
19536;HTU21D;9913;51.168;4.124;2022-11-06T00:20:58;10.12;78.51
19536;HTU21D;9913;51.168;4.124;2022-11-06T00:23:27;10.12;78.39
19536;HTU21D;9913;51.168;4.124;2022-11-06T00:25:55;10.11;78.55
19536;HTU21D;9913;51.168;4.124;2022-11-06T00:28:23;10.10;78.57
19536;HTU21D;9913;51.168;4.124;2022-11-06T00:31:01;10.10;78.62
19536;HTU21D;9913;51.168;4.124;2022-11-06T00:33:30;10.05;78.54
19536;HTU21D;9913;51.168;4.124;2022-11-06T00:35:58;10.01;78.72
19536;HTU21D;9913;51.168;4.124;2022-11-06T00:38:29;9.98;78.75
19536;HTU21D;9913;51.168;4.124;2022-11-06T00:41:01;9.95;78.93
19536;HTU21D;9913;51.168;4.124;2022-11-06T00:43:29;10.00;78.88
19536;HTU21D;9913;51.168;4.124;2022-11-06T00:46:01;10.05;78.72
19536;HTU21D;9913;51.168;4.124;2022-11-06T00:48:30;10.04;78.66
19536;HTU21D;9913;51.168;4.124;2022-11-06T00:51:01;10.06;78.79
19536;HTU21D;9913;51.168;4.124;2022-11-06T00:53:29;10.12;78.60
19536;HTU21D;9913;51.168;4.124;2022-11-06T00:56:03;10.08;78.56
19536;HTU21D;9913;51.168;4.124;2022-11-06T00:58:32;10.07;78.64
19536;HTU21D;9913;51.168;4.124;2022-11-06T01:01:10;10.13;78.63
19536;HTU21D;9913;51.168;4.124;2022-11-06T01:03:40;10.19;78.64
19536;HTU21D;9913;51.168;4.124;2022-11-06T01:06:10;10.27;78.48
19536;HTU21D;9913;51.168;4.124;2022-11-06T01:08:39;10.26;78.59
19536;HTU21D;9913;51.168;4.124;2022-11-06T01:11:09;10.30;78.56
19536;HTU21D;9913;51.168;4.124;2022-11-06T01:13:39;10.31;78.55
19536;HTU21D;9913;51.168;4.124;2022-11-06T01:16:10;10.37;78.50
19536;HTU21D;9913;51.168;4.124;2022-11-06T01:18:39;10.39;78.22
19536;HTU21D;9913;51.168;4.124;2022-11-06T01:21:10;10.40;78.25
19536;HTU21D;9913;51.168;4.124;2022-11-06T01:23:40;10.42;78.24
19536;HTU21D;9913;51.168;4.124;2022-11-06T01:26:09;10.45;78.32
19536;HTU21D;9913;51.168;4.124;2022-11-06T01:28:38;10.48;78.22
19536;HTU21D;9913;51.168;4.124;2022-11-06T01:31:10;10.48;78.14
19536;HTU21D;9913;51.168;4.124;2022-11-06T01:33:38;10.46;78.26
19536;HTU21D;9913;51.168;4.124;2022-11-06T01:36:08;10.44;78.37
19536;HTU21D;9913;51.168;4.124;2022-11-06T01:38:39;10.44;78.37
19536;HTU21D;9913;51.168;4.124;2022-11-06T01:41:07;10.45;78.51
19536;HTU21D;9913;51.168;4.124;2022-11-06T01:43:44;10.41;78.20
19536;HTU21D;9913;51.168;4.124;2022-11-06T01:46:15;10.48;78.23
19536;HTU21D;9913;51.168;4.124;2022-11-06T01:48:46;10.49;78.21
19536;HTU21D;9913;51.168;4.124;2022-11-06T01:51:16;10.50;78.21
19536;HTU21D;9913;51.168;4.124;2022-11-06T01:53:45;10.48;78.27
19536;HTU21D;9913;51.168;4.124;2022-11-06T01:56:14;10.48;78.35
19536;HTU21D;9913;51.168;4.124;2022-11-06T01:58:43;10.43;78.37
19536;HTU21D;9913;51.168;4.124;2022-11-06T02:01:12;10.44;78.42
19536;HTU21D;9913;51.168;4.124;2022-11-06T02:04:01;10.48;78.55
19536;HTU21D;9913;51.168;4.124;2022-11-06T02:06:31;10.54;78.50
19536;HTU21D;9913;51.168;4.124;2022-11-06T02:09:00;10.52;78.60
19536;HTU21D;9913;51.168;4.124;2022-11-06T02:11:29;10.51;78.58
19536;HTU21D;9913;51.168;4.124;2022-11-06T02:14:02;10.53;78.53
19536;HTU21D;9913;51.168;4.124;2022-11-06T02:16:39;10.48;78.52
19536;HTU21D;9913;51.168;4.124;2022-11-06T02:19:27;10.50;78.52
19536;HTU21D;9913;51.168;4.124;2022-11-06T02:22:08;10.50;78.66
19536;HTU21D;9913;51.168;4.124;2022-11-06T02:25:04;10.49;78.58
19536;HTU21D;9913;51.168;4.124;2022-11-06T02:27:36;10.51;78.48
19536;HTU21D;9913;51.168;4.124;2022-11-06T02:30:07;10.57;78.40
19536;HTU21D;9913;51.168;4.124;2022-11-06T02:32:41;10.53;78.57
19536;HTU21D;9913;51.168;4.124;2022-11-06T02:35:18;10.53;78.59
19536;HTU21D;9913;51.168;4.124;2022-11-06T02:37:50;10.42;78.92
19536;HTU21D;9913;51.168;4.124;2022-11-06T02:40:21;10.30;79.69
19536;HTU21D;9913;51.168;4.124;2022-11-06T02:42:53;10.21;80.38
19536;HTU21D;9913;51.168;4.124;2022-11-06T02:45:24;10.11;80.74
19536;HTU21D;9913;51.168;4.124;2022-11-06T02:47:54;10.07;81.07
19536;HTU21D;9913;51.168;4.124;2022-11-06T02:50:25;10.04;81.23
19536;HTU21D;9913;51.168;4.124;2022-11-06T02:52:59;10.04;81.47
19536;HTU21D;9913;51.168;4.124;2022-11-06T02:55:33;9.98;81.26
19536;HTU21D;9913;51.168;4.124;2022-11-06T02:58:08;10.01;81.15
19536;HTU21D;9913;51.168;4.124;2022-11-06T03:00:39;10.01;81.02
19536;HTU21D;9913;51.168;4.124;2022-11-06T03:03:15;10.00;80.64
19536;HTU21D;9913;51.168;4.124;2022-11-06T03:05:51;10.03;80.27
19536;HTU21D;9913;51.168;4.124;2022-11-06T03:08:25;10.04;80.20
19536;HTU21D;9913;51.168;4.124;2022-11-06T03:11:02;10.07;79.73
19536;HTU21D;9913;51.168;4.124;2022-11-06T03:13:42;10.07;79.80
19536;HTU21D;9913;51.168;4.124;2022-11-06T03:16:18;10.11;79.64
19536;HTU21D;9913;51.168;4.124;2022-11-06T03:18:55;10.10;79.67
19536;HTU21D;9913;51.168;4.124;2022-11-06T03:21:29;10.13;79.30
19536;HTU21D;9913;51.168;4.124;2022-11-06T03:24:03;10.14;79.34
19536;HTU21D;9913;51.168;4.124;2022-11-06T03:26:40;10.14;79.35
19536;HTU21D;9913;51.168;4.124;2022-11-06T03:29:15;10.14;79.34
19536;HTU21D;9913;51.168;4.124;2022-11-06T03:31:48;10.14;79.09
19536;HTU21D;9913;51.168;4.124;2022-11-06T03:34:23;10.11;79.23
19536;HTU21D;9913;51.168;4.124;2022-11-06T03:37:00;10.13;79.17
19536;HTU21D;9913;51.168;4.124;2022-11-06T03:39:32;10.12;79.13
19536;HTU21D;9913;51.168;4.124;2022-11-06T03:42:04;10.10;79.36
19536;HTU21D;9913;51.168;4.124;2022-11-06T03:44:39;10.08;79.34
19536;HTU21D;9913;51.168;4.124;2022-11-06T03:47:10;10.10;79.17
19536;HTU21D;9913;51.168;4.124;2022-11-06T03:49:48;10.10;79.29
19536;HTU21D;9913;51.168;4.124;2022-11-06T03:52:21;10.10;79.25
19536;HTU21D;9913;51.168;4.124;2022-11-06T03:54:54;10.18;78.95
19536;HTU21D;9913;51.168;4.124;2022-11-06T03:57:27;10.19;79.04
19536;HTU21D;9913;51.168;4.124;2022-11-06T04:00:01;10.22;78.95
19536;HTU21D;9913;51.168;4.124;2022-11-06T04:02:39;10.27;78.81
19536;HTU21D;9913;51.168;4.124;2022-11-06T04:05:13;10.25;78.85
19536;HTU21D;9913;51.168;4.124;2022-11-06T04:07:45;10.26;78.69
19536;HTU21D;9913;51.168;4.124;2022-11-06T04:10:37;10.25;78.86
19536;HTU21D;9913;51.168;4.124;2022-11-06T04:13:26;10.20;78.95
19536;HTU21D;9913;51.168;4.124;2022-11-06T04:16:17;10.22;78.83
19536;HTU21D;9913;51.168;4.124;2022-11-06T04:18:46;10.23;78.75
19536;HTU21D;9913;51.168;4.124;2022-11-06T04:21:20;10.22;78.79
19536;HTU21D;9913;51.168;4.124;2022-11-06T04:24:07;10.14;78.88
19536;HTU21D;9913;51.168;4.124;2022-11-06T04:27:32;10.08;78.94
19536;HTU21D;9913;51.168;4.124;2022-11-06T04:30:05;10.01;79.22
19536;HTU21D;9913;51.168;4.124;2022-11-06T04:32:59;10.04;78.92
19536;HTU21D;9913;51.168;4.124;2022-11-06T04:35:33;9.99;79.09
19536;HTU21D;9913;51.168;4.124;2022-11-06T04:38:08;9.99;78.96
19536;HTU21D;9913;51.168;4.124;2022-11-06T04:40:49;9.92;79.17
19536;HTU21D;9913;51.168;4.124;2022-11-06T04:43:23;9.86;79.23
19536;HTU21D;9913;51.168;4.124;2022-11-06T04:45:54;9.81;79.44
19536;HTU21D;9913;51.168;4.124;2022-11-06T04:48:26;9.80;79.42
19536;HTU21D;9913;51.168;4.124;2022-11-06T04:50:58;9.77;79.48
19536;HTU21D;9913;51.168;4.124;2022-11-06T04:53:28;9.74;79.49
19536;HTU21D;9913;51.168;4.124;2022-11-06T04:56:00;9.69;79.62
19536;HTU21D;9913;51.168;4.124;2022-11-06T04:58:29;9.72;79.53
19536;HTU21D;9913;51.168;4.124;2022-11-06T05:00:57;9.70;79.62
19536;HTU21D;9913;51.168;4.124;2022-11-06T05:03:26;9.67;79.64
19536;HTU21D;9913;51.168;4.124;2022-11-06T05:05:55;9.71;79.53
19536;HTU21D;9913;51.168;4.124;2022-11-06T05:08:23;9.71;79.48
19536;HTU21D;9913;51.168;4.124;2022-11-06T05:10:52;9.72;79.53
19536;HTU21D;9913;51.168;4.124;2022-11-06T05:13:20;9.76;79.21
19536;HTU21D;9913;51.168;4.124;2022-11-06T05:15:54;9.71;79.39
19536;HTU21D;9913;51.168;4.124;2022-11-06T05:18:22;9.68;79.51
19536;HTU21D;9913;51.168;4.124;2022-11-06T05:20:52;9.64;79.66
19536;HTU21D;9913;51.168;4.124;2022-11-06T05:23:40;9.68;79.66
19536;HTU21D;9913;51.168;4.124;2022-11-06T05:26:09;9.74;79.43
19536;HTU21D;9913;51.168;4.124;2022-11-06T05:28:38;9.72;79.49
19536;HTU21D;9913;51.168;4.124;2022-11-06T05:31:06;9.71;79.58
19536;HTU21D;9913;51.168;4.124;2022-11-06T05:33:34;9.72;79.49
19536;HTU21D;9913;51.168;4.124;2022-11-06T05:36:05;9.76;79.32
19536;HTU21D;9913;51.168;4.124;2022-11-06T05:38:34;9.78;79.23
19536;HTU21D;9913;51.168;4.124;2022-11-06T05:41:02;9.74;79.28
19536;HTU21D;9913;51.168;4.124;2022-11-06T05:43:30;9.71;79.36
19536;HTU21D;9913;51.168;4.124;2022-11-06T05:45:58;9.69;79.49
19536;HTU21D;9913;51.168;4.124;2022-11-06T05:48:27;9.74;79.39
19536;HTU21D;9913;51.168;4.124;2022-11-06T05:50:59;9.71;79.33
19536;HTU21D;9913;51.168;4.124;2022-11-06T05:53:30;9.67;79.36
19536;HTU21D;9913;51.168;4.124;2022-11-06T05:55:58;9.70;79.44
19536;HTU21D;9913;51.168;4.124;2022-11-06T05:58:27;9.80;79.17
19536;HTU21D;9913;51.168;4.124;2022-11-06T06:00:55;9.86;79.04
19536;HTU21D;9913;51.168;4.124;2022-11-06T06:03:24;9.86;78.87
19536;HTU21D;9913;51.168;4.124;2022-11-06T06:05:53;9.85;79.00
19536;HTU21D;9913;51.168;4.124;2022-11-06T06:08:21;9.88;79.02
19536;HTU21D;9913;51.168;4.124;2022-11-06T06:10:51;9.94;78.76
19536;HTU21D;9913;51.168;4.124;2022-11-06T06:13:19;9.94;78.88
19536;HTU21D;9913;51.168;4.124;2022-11-06T06:15:47;9.89;78.89
19536;HTU21D;9913;51.168;4.124;2022-11-06T06:18:16;9.91;78.99
19536;HTU21D;9913;51.168;4.124;2022-11-06T06:20:44;9.86;79.00
19536;HTU21D;9913;51.168;4.124;2022-11-06T06:23:12;9.86;78.93
19536;HTU21D;9913;51.168;4.124;2022-11-06T06:25:40;9.86;79.01
19536;HTU21D;9913;51.168;4.124;2022-11-06T06:28:10;9.86;79.11
19536;HTU21D;9913;51.168;4.124;2022-11-06T06:30:39;9.94;78.96
19536;HTU21D;9913;51.168;4.124;2022-11-06T06:33:07;9.98;78.90
19536;HTU21D;9913;51.168;4.124;2022-11-06T06:35:35;9.96;78.72
19536;HTU21D;9913;51.168;4.124;2022-11-06T06:38:03;9.94;78.85
19536;HTU21D;9913;51.168;4.124;2022-11-06T06:40:32;9.99;78.82
19536;HTU21D;9913;51.168;4.124;2022-11-06T06:43:00;10.00;79.01
19536;HTU21D;9913;51.168;4.124;2022-11-06T06:45:29;10.08;78.68
19536;HTU21D;9913;51.168;4.124;2022-11-06T06:48:01;10.19;78.72
19536;HTU21D;9913;51.168;4.124;2022-11-06T06:50:30;10.20;78.50
19536;HTU21D;9913;51.168;4.124;2022-11-06T06:52:58;10.21;78.54
19536;HTU21D;9913;51.168;4.124;2022-11-06T06:55:26;10.22;78.54
19536;HTU21D;9913;51.168;4.124;2022-11-06T06:57:56;10.31;78.40
19536;HTU21D;9913;51.168;4.124;2022-11-06T07:00:28;10.35;78.36
19536;HTU21D;9913;51.168;4.124;2022-11-06T07:02:57;10.36;78.30
19536;HTU21D;9913;51.168;4.124;2022-11-06T07:05:25;10.46;78.14
19536;HTU21D;9913;51.168;4.124;2022-11-06T07:07:54;10.51;78.29
19536;HTU21D;9913;51.168;4.124;2022-11-06T07:10:22;10.58;78.12
19536;HTU21D;9913;51.168;4.124;2022-11-06T07:12:50;10.66;78.14
19536;HTU21D;9913;51.168;4.124;2022-11-06T07:15:18;10.70;78.11
19536;HTU21D;9913;51.168;4.124;2022-11-06T07:17:47;10.71;77.89
19536;HTU21D;9913;51.168;4.124;2022-11-06T07:20:17;10.74;78.02
19536;HTU21D;9913;51.168;4.124;2022-11-06T07:22:45;10.81;78.14
19536;HTU21D;9913;51.168;4.124;2022-11-06T07:25:13;10.88;77.73
19536;HTU21D;9913;51.168;4.124;2022-11-06T07:27:42;10.98;77.66
19536;HTU21D;9913;51.168;4.124;2022-11-06T07:30:11;11.08;77.68
19536;HTU21D;9913;51.168;4.124;2022-11-06T07:32:39;11.16;77.58
19536;HTU21D;9913;51.168;4.124;2022-11-06T07:35:08;11.30;77.67
19536;HTU21D;9913;51.168;4.124;2022-11-06T07:37:38;11.41;77.60
19536;HTU21D;9913;51.168;4.124;2022-11-06T07:40:08;11.56;77.01
19536;HTU21D;9913;51.168;4.124;2022-11-06T07:42:37;11.64;77.08
19536;HTU21D;9913;51.168;4.124;2022-11-06T07:45:13;11.63;77.14
19536;HTU21D;9913;51.168;4.124;2022-11-06T07:47:42;11.67;77.18
19536;HTU21D;9913;51.168;4.124;2022-11-06T07:50:10;11.64;77.18
19536;HTU21D;9913;51.168;4.124;2022-11-06T07:52:39;11.57;76.91
19536;HTU21D;9913;51.168;4.124;2022-11-06T07:55:08;11.60;77.21
19536;HTU21D;9913;51.168;4.124;2022-11-06T07:57:36;11.62;76.98
19536;HTU21D;9913;51.168;4.124;2022-11-06T08:00:08;11.69;77.24
19536;HTU21D;9913;51.168;4.124;2022-11-06T08:02:39;11.70;76.83
19536;HTU21D;9913;51.168;4.124;2022-11-06T08:05:08;11.67;77.08
19536;HTU21D;9913;51.168;4.124;2022-11-06T08:07:36;11.73;77.31
19536;HTU21D;9913;51.168;4.124;2022-11-06T08:10:06;11.74;77.10
19536;HTU21D;9913;51.168;4.124;2022-11-06T08:12:34;11.81;76.98
19536;HTU21D;9913;51.168;4.124;2022-11-06T08:15:03;11.85;77.15
19536;HTU21D;9913;51.168;4.124;2022-11-06T08:17:32;11.92;76.61
19536;HTU21D;9913;51.168;4.124;2022-11-06T08:20:00;11.97;76.59
19536;HTU21D;9913;51.168;4.124;2022-11-06T08:22:29;11.94;76.98
19536;HTU21D;9913;51.168;4.124;2022-11-06T08:24:57;12.00;76.99
19536;HTU21D;9913;51.168;4.124;2022-11-06T08:27:29;11.98;76.76
19536;HTU21D;9913;51.168;4.124;2022-11-06T08:29:58;11.92;76.91
19536;HTU21D;9913;51.168;4.124;2022-11-06T08:32:27;11.97;77.47
19536;HTU21D;9913;51.168;4.124;2022-11-06T08:34:55;11.97;77.21
19536;HTU21D;9913;51.168;4.124;2022-11-06T08:37:23;11.97;76.76
19536;HTU21D;9913;51.168;4.124;2022-11-06T08:39:52;11.99;77.24
19536;HTU21D;9913;51.168;4.124;2022-11-06T08:42:20;12.00;76.61
19536;HTU21D;9913;51.168;4.124;2022-11-06T08:44:50;12.05;77.09
19536;HTU21D;9913;51.168;4.124;2022-11-06T08:47:18;12.04;76.70
19536;HTU21D;9913;51.168;4.124;2022-11-06T08:49:46;12.02;77.02
19536;HTU21D;9913;51.168;4.124;2022-11-06T08:52:14;12.00;76.92
19536;HTU21D;9913;51.168;4.124;2022-11-06T08:54:43;12.01;76.64
19536;HTU21D;9913;51.168;4.124;2022-11-06T08:57:11;12.06;77.18
19536;HTU21D;9913;51.168;4.124;2022-11-06T08:59:39;12.11;76.89
19536;HTU21D;9913;51.168;4.124;2022-11-06T09:02:12;12.06;76.81
19536;HTU21D;9913;51.168;4.124;2022-11-06T09:04:40;12.14;76.62
19536;HTU21D;9913;51.168;4.124;2022-11-06T09:07:09;12.16;76.84
19536;HTU21D;9913;51.168;4.124;2022-11-06T09:09:37;12.20;76.71
19536;HTU21D;9913;51.168;4.124;2022-11-06T09:12:06;12.19;76.45
19536;HTU21D;9913;51.168;4.124;2022-11-06T09:14:34;12.18;76.31
19536;HTU21D;9913;51.168;4.124;2022-11-06T09:17:03;12.29;76.64
19536;HTU21D;9913;51.168;4.124;2022-11-06T09:19:33;12.32;76.13
19536;HTU21D;9913;51.168;4.124;2022-11-06T09:22:01;12.51;76.59
19536;HTU21D;9913;51.168;4.124;2022-11-06T09:24:29;12.47;76.30
19536;HTU21D;9913;51.168;4.124;2022-11-06T09:27:17;12.49;76.02
19536;HTU21D;9913;51.168;4.124;2022-11-06T09:29:45;12.44;76.12
19536;HTU21D;9913;51.168;4.124;2022-11-06T09:32:15;12.41;76.06
19536;HTU21D;9913;51.168;4.124;2022-11-06T09:34:44;12.46;76.58
19536;HTU21D;9913;51.168;4.124;2022-11-06T09:37:13;12.46;76.18
19536;HTU21D;9913;51.168;4.124;2022-11-06T09:39:41;12.41;76.36
19536;HTU21D;9913;51.168;4.124;2022-11-06T09:42:17;12.40;76.67
19536;HTU21D;9913;51.168;4.124;2022-11-06T09:44:56;12.41;76.76
19536;HTU21D;9913;51.168;4.124;2022-11-06T09:47:31;12.47;76.15
19536;HTU21D;9913;51.168;4.124;2022-11-06T09:50:05;12.49;76.34
19536;HTU21D;9913;51.168;4.124;2022-11-06T09:52:42;12.47;76.51
19536;HTU21D;9913;51.168;4.124;2022-11-06T09:55:15;12.53;76.37
19536;HTU21D;9913;51.168;4.124;2022-11-06T09:57:47;12.49;76.12
19536;HTU21D;9913;51.168;4.124;2022-11-06T10:00:18;12.45;76.26
19536;HTU21D;9913;51.168;4.124;2022-11-06T10:02:49;12.40;76.24
19536;HTU21D;9913;51.168;4.124;2022-11-06T10:05:24;12.41;76.34
19536;HTU21D;9913;51.168;4.124;2022-11-06T10:07:55;12.45;76.84
19536;HTU21D;9913;51.168;4.124;2022-11-06T10:10:29;12.50;75.95
19536;HTU21D;9913;51.168;4.124;2022-11-06T10:13:11;12.59;75.99
19536;HTU21D;9913;51.168;4.124;2022-11-06T10:15:50;12.56;75.67
19536;HTU21D;9913;51.168;4.124;2022-11-06T10:18:26;12.55;76.16
19536;HTU21D;9913;51.168;4.124;2022-11-06T10:21:05;12.53;76.44
19536;HTU21D;9913;51.168;4.124;2022-11-06T10:23:42;12.53;76.34
19536;HTU21D;9913;51.168;4.124;2022-11-06T10:26:14;12.50;75.78
19536;HTU21D;9913;51.168;4.124;2022-11-06T10:28:57;12.47;76.56
19536;HTU21D;9913;51.168;4.124;2022-11-06T10:31:32;12.44;75.95
19536;HTU21D;9913;51.168;4.124;2022-11-06T10:34:08;12.41;76.68
19536;HTU21D;9913;51.168;4.124;2022-11-06T10:36:42;12.41;75.90
19536;HTU21D;9913;51.168;4.124;2022-11-06T10:39:20;12.31;75.93
19536;HTU21D;9913;51.168;4.124;2022-11-06T10:41:53;12.35;75.91
19536;HTU21D;9913;51.168;4.124;2022-11-06T10:44:28;12.38;76.23
19536;HTU21D;9913;51.168;4.124;2022-11-06T10:47:03;12.41;75.99
19536;HTU21D;9913;51.168;4.124;2022-11-06T10:49:37;12.43;76.66
19536;HTU21D;9913;51.168;4.124;2022-11-06T10:52:36;12.59;76.05
19536;HTU21D;9913;51.168;4.124;2022-11-06T10:58:17;12.63;75.60
19536;HTU21D;9913;51.168;4.124;2022-11-06T11:00:46;12.70;75.65
19536;HTU21D;9913;51.168;4.124;2022-11-06T11:03:22;12.65;75.57
19536;HTU21D;9913;51.168;4.124;2022-11-06T11:05:51;12.65;76.18
19536;HTU21D;9913;51.168;4.124;2022-11-06T11:08:37;12.66;75.95
19536;HTU21D;9913;51.168;4.124;2022-11-06T11:11:17;12.77;76.58
19536;HTU21D;9913;51.168;4.124;2022-11-06T11:13:47;12.90;75.83
19536;HTU21D;9913;51.168;4.124;2022-11-06T11:16:18;12.85;75.67
19536;HTU21D;9913;51.168;4.124;2022-11-06T11:18:48;12.79;75.36
19536;HTU21D;9913;51.168;4.124;2022-11-06T11:21:24;12.77;75.83
19536;HTU21D;9913;51.168;4.124;2022-11-06T11:24:09;12.59;76.07
19536;HTU21D;9913;51.168;4.124;2022-11-06T11:26:41;12.46;75.76
19536;HTU21D;9913;51.168;4.124;2022-11-06T11:29:14;12.46;75.80
19536;HTU21D;9913;51.168;4.124;2022-11-06T11:31:46;12.50;75.99
19536;HTU21D;9913;51.168;4.124;2022-11-06T11:34:19;12.56;75.50
19536;HTU21D;9913;51.168;4.124;2022-11-06T11:36:59;12.44;76.28
19536;HTU21D;9913;51.168;4.124;2022-11-06T11:39:32;12.37;75.90
19536;HTU21D;9913;51.168;4.124;2022-11-06T11:42:31;12.42;75.77
19536;HTU21D;9913;51.168;4.124;2022-11-06T11:45:11;12.38;76.15
19536;HTU21D;9913;51.168;4.124;2022-11-06T11:47:42;12.27;75.85
19536;HTU21D;9913;51.168;4.124;2022-11-06T11:50:27;12.19;75.79
19536;HTU21D;9913;51.168;4.124;2022-11-06T11:52:59;12.06;76.23
19536;HTU21D;9913;51.168;4.124;2022-11-06T11:55:39;11.93;76.44
19536;HTU21D;9913;51.168;4.124;2022-11-06T11:58:20;11.85;76.34
19536;HTU21D;9913;51.168;4.124;2022-11-06T12:00:52;11.74;76.89
19536;HTU21D;9913;51.168;4.124;2022-11-06T12:03:23;11.64;77.25
19536;HTU21D;9913;51.168;4.124;2022-11-06T12:05:53;11.55;77.01
19536;HTU21D;9913;51.168;4.124;2022-11-06T12:08:31;11.45;76.95
19536;HTU21D;9913;51.168;4.124;2022-11-06T12:11:05;11.37;77.23
19536;HTU21D;9913;51.168;4.124;2022-11-06T12:13:34;11.33;77.15
19536;HTU21D;9913;51.168;4.124;2022-11-06T12:16:04;11.28;77.50
19536;HTU21D;9913;51.168;4.124;2022-11-06T12:18:38;11.07;78.49
19536;HTU21D;9913;51.168;4.124;2022-11-06T12:21:11;10.99;78.21
19536;HTU21D;9913;51.168;4.124;2022-11-06T12:23:44;10.87;78.90
19536;HTU21D;9913;51.168;4.124;2022-11-06T12:26:22;10.73;78.79
19536;HTU21D;9913;51.168;4.124;2022-11-06T12:28:55;10.70;78.71
19536;HTU21D;9913;51.168;4.124;2022-11-06T12:31:36;10.68;79.18
19536;HTU21D;9913;51.168;4.124;2022-11-06T12:34:10;10.63;79.40
19536;HTU21D;9913;51.168;4.124;2022-11-06T12:36:48;10.56;79.59
19536;HTU21D;9913;51.168;4.124;2022-11-06T12:39:22;10.50;79.95
19536;HTU21D;9913;51.168;4.124;2022-11-06T12:41:55;10.43;80.06
19536;HTU21D;9913;51.168;4.124;2022-11-06T12:44:24;10.28;79.56
19536;HTU21D;9913;51.168;4.124;2022-11-06T12:46:56;10.26;79.76
19536;HTU21D;9913;51.168;4.124;2022-11-06T12:49:54;10.23;80.59
19536;HTU21D;9913;51.168;4.124;2022-11-06T12:52:36;10.20;80.33
19536;HTU21D;9913;51.168;4.124;2022-11-06T12:55:16;10.13;80.38
19536;HTU21D;9913;51.168;4.124;2022-11-06T12:58:00;10.06;80.49
19536;HTU21D;9913;51.168;4.124;2022-11-06T13:00:36;10.12;81.06
19536;HTU21D;9913;51.168;4.124;2022-11-06T13:03:18;10.08;81.51
19536;HTU21D;9913;51.168;4.124;2022-11-06T13:05:54;9.98;81.46
19536;HTU21D;9913;51.168;4.124;2022-11-06T13:08:34;9.95;81.33
19536;HTU21D;9913;51.168;4.124;2022-11-06T13:11:12;9.94;81.80
19536;HTU21D;9913;51.168;4.124;2022-11-06T13:13:54;9.81;81.62
19536;HTU21D;9913;51.168;4.124;2022-11-06T13:16:31;9.81;82.01
19536;HTU21D;9913;51.168;4.124;2022-11-06T13:19:08;9.81;82.63
19536;HTU21D;9913;51.168;4.124;2022-11-06T13:21:57;9.71;82.26
19536;HTU21D;9913;51.168;4.124;2022-11-06T13:24:32;9.67;82.53
19536;HTU21D;9913;51.168;4.124;2022-11-06T13:27:07;9.67;82.87
19536;HTU21D;9913;51.168;4.124;2022-11-06T13:29:39;9.65;83.16
19536;HTU21D;9913;51.168;4.124;2022-11-06T13:32:11;9.60;82.66
19536;HTU21D;9913;51.168;4.124;2022-11-06T13:34:42;9.50;82.66
19536;HTU21D;9913;51.168;4.124;2022-11-06T13:37:14;9.49;82.68
19536;HTU21D;9913;51.168;4.124;2022-11-06T13:39:46;9.49;83.47
19536;HTU21D;9913;51.168;4.124;2022-11-06T13:42:21;9.53;83.45
19536;HTU21D;9913;51.168;4.124;2022-11-06T13:44:52;9.51;83.71
19536;HTU21D;9913;51.168;4.124;2022-11-06T13:47:26;9.44;83.04
19536;HTU21D;9913;51.168;4.124;2022-11-06T13:50:02;9.37;83.23
19536;HTU21D;9913;51.168;4.124;2022-11-06T13:52:36;9.32;82.58
19536;HTU21D;9913;51.168;4.124;2022-11-06T13:55:12;9.27;82.48
19536;HTU21D;9913;51.168;4.124;2022-11-06T13:58:14;9.31;83.81
19536;HTU21D;9913;51.168;4.124;2022-11-06T14:00:57;9.23;83.33
19536;HTU21D;9913;51.168;4.124;2022-11-06T14:03:56;9.11;82.26
19536;HTU21D;9913;51.168;4.124;2022-11-06T14:06:29;9.06;81.88
19536;HTU21D;9913;51.168;4.124;2022-11-06T14:08:59;9.02;81.76
19536;HTU21D;9913;51.168;4.124;2022-11-06T14:11:30;8.91;81.62
19536;HTU21D;9913;51.168;4.124;2022-11-06T14:14:01;8.91;81.63
19536;HTU21D;9913;51.168;4.124;2022-11-06T14:16:32;8.86;82.56
19536;HTU21D;9913;51.168;4.124;2022-11-06T14:19:04;8.82;82.10
19536;HTU21D;9913;51.168;4.124;2022-11-06T14:21:46;8.73;81.72
19536;HTU21D;9913;51.168;4.124;2022-11-06T14:24:29;8.72;82.55
19536;HTU21D;9913;51.168;4.124;2022-11-06T14:26:59;8.67;82.14
19536;HTU21D;9913;51.168;4.124;2022-11-06T14:29:54;8.67;82.33
19536;HTU21D;9913;51.168;4.124;2022-11-06T14:32:44;8.66;82.33
19536;HTU21D;9913;51.168;4.124;2022-11-06T14:38:29;8.62;81.82
19536;HTU21D;9913;51.168;4.124;2022-11-06T14:40:58;8.59;81.94
19536;HTU21D;9913;51.168;4.124;2022-11-06T14:43:29;8.53;82.09
19536;HTU21D;9913;51.168;4.124;2022-11-06T14:46:01;8.46;81.44
19536;HTU21D;9913;51.168;4.124;2022-11-06T14:48:34;8.36;80.72
19536;HTU21D;9913;51.168;4.124;2022-11-06T14:51:06;8.41;81.55
19536;HTU21D;9913;51.168;4.124;2022-11-06T14:53:38;8.42;81.89
19536;HTU21D;9913;51.168;4.124;2022-11-06T14:56:19;8.37;81.70
19536;HTU21D;9913;51.168;4.124;2022-11-06T14:58:50;8.39;82.07
19536;HTU21D;9913;51.168;4.124;2022-11-06T15:01:26;8.34;81.52
19536;HTU21D;9913;51.168;4.124;2022-11-06T15:03:59;8.35;82.25
19536;HTU21D;9913;51.168;4.124;2022-11-06T15:06:37;8.39;82.69
19536;HTU21D;9913;51.168;4.124;2022-11-06T15:09:10;8.34;82.79
19536;HTU21D;9913;51.168;4.124;2022-11-06T15:11:54;8.34;83.35
19536;HTU21D;9913;51.168;4.124;2022-11-06T15:14:58;8.35;82.73
19536;HTU21D;9913;51.168;4.124;2022-11-06T15:17:33;8.33;83.07
19536;HTU21D;9913;51.168;4.124;2022-11-06T15:20:14;8.30;82.76
19536;HTU21D;9913;51.168;4.124;2022-11-06T15:22:56;8.33;82.53
19536;HTU21D;9913;51.168;4.124;2022-11-06T15:25:26;8.31;82.81
19536;HTU21D;9913;51.168;4.124;2022-11-06T15:28:00;8.31;83.14
19536;HTU21D;9913;51.168;4.124;2022-11-06T15:30:38;8.34;83.23
19536;HTU21D;9913;51.168;4.124;2022-11-06T15:33:11;8.27;83.05
19536;HTU21D;9913;51.168;4.124;2022-11-06T15:35:45;8.29;83.40
19536;HTU21D;9913;51.168;4.124;2022-11-06T15:38:18;8.28;83.30
19536;HTU21D;9913;51.168;4.124;2022-11-06T15:40:50;8.24;83.71
19536;HTU21D;9913;51.168;4.124;2022-11-06T15:43:29;8.23;84.09
19536;HTU21D;9913;51.168;4.124;2022-11-06T15:46:03;8.22;84.35
19536;HTU21D;9913;51.168;4.124;2022-11-06T15:48:33;8.21;83.90
19536;HTU21D;9913;51.168;4.124;2022-11-06T15:51:03;8.22;83.94
19536;HTU21D;9913;51.168;4.124;2022-11-06T15:53:32;8.21;84.52
19536;HTU21D;9913;51.168;4.124;2022-11-06T15:56:07;8.23;84.81
19536;HTU21D;9913;51.168;4.124;2022-11-06T15:58:36;8.31;84.65
19536;HTU21D;9913;51.168;4.124;2022-11-06T16:01:06;8.28;85.22
19536;HTU21D;9913;51.168;4.124;2022-11-06T16:03:43;8.31;84.49
19536;HTU21D;9913;51.168;4.124;2022-11-06T16:06:14;8.24;84.26
19536;HTU21D;9913;51.168;4.124;2022-11-06T16:08:42;8.27;83.62
19536;HTU21D;9913;51.168;4.124;2022-11-06T16:11:13;8.32;84.03
19536;HTU21D;9913;51.168;4.124;2022-11-06T16:13:43;8.31;84.43
19536;HTU21D;9913;51.168;4.124;2022-11-06T16:16:32;8.26;84.29
19536;HTU21D;9913;51.168;4.124;2022-11-06T16:19:02;8.29;84.32